sensor_id;sensor_type;location;lat;lon;timestamp;P1;durP1;ratioP1;P2;durP2;ratioP2
29688;SDS011;16600;47.444;8.334;2024-01-27T00:00:46;3.70;;;2.35;;
29688;SDS011;16600;47.444;8.334;2024-01-27T00:03:15;7.65;;;2.20;;
29688;SDS011;16600;47.444;8.334;2024-01-27T00:05:54;4.43;;;1.92;;
29688;SDS011;16600;47.444;8.334;2024-01-27T00:08:22;7.38;;;2.47;;
29688;SDS011;16600;47.444;8.334;2024-01-27T00:10:52;3.83;;;2.53;;
29688;SDS011;16600;47.444;8.334;2024-01-27T00:13:18;4.10;;;2.28;;
29688;SDS011;16600;47.444;8.334;2024-01-27T00:15:48;3.35;;;2.42;;
29688;SDS011;16600;47.444;8.334;2024-01-27T00:18:16;4.05;;;2.45;;
29688;SDS011;16600;47.444;8.334;2024-01-27T00:20:45;4.05;;;2.28;;
29688;SDS011;16600;47.444;8.334;2024-01-27T00:23:17;10.77;;;3.10;;
29688;SDS011;16600;47.444;8.334;2024-01-27T00:28:17;7.88;;;5.13;;
29688;SDS011;16600;47.444;8.334;2024-01-27T00:30:48;6.80;;;3.95;;
29688;SDS011;16600;47.444;8.334;2024-01-27T00:33:21;7.97;;;3.92;;
29688;SDS011;16600;47.444;8.334;2024-01-27T00:35:51;8.52;;;4.18;;
29688;SDS011;16600;47.444;8.334;2024-01-27T00:38:20;7.15;;;4.15;;
29688;SDS011;16600;47.444;8.334;2024-01-27T00:40:46;6.68;;;3.30;;
29688;SDS011;16600;47.444;8.334;2024-01-27T00:43:18;6.30;;;2.88;;
29688;SDS011;16600;47.444;8.334;2024-01-27T00:45:45;4.47;;;2.42;;
29688;SDS011;16600;47.444;8.334;2024-01-27T00:48:14;9.25;;;2.95;;
29688;SDS011;16600;47.444;8.334;2024-01-27T00:50:41;5.95;;;3.03;;
29688;SDS011;16600;47.444;8.334;2024-01-27T00:53:10;3.95;;;3.00;;
29688;SDS011;16600;47.444;8.334;2024-01-27T00:55:45;4.90;;;2.42;;
29688;SDS011;16600;47.444;8.334;2024-01-27T00:58:11;8.52;;;2.92;;
29688;SDS011;16600;47.444;8.334;2024-01-27T01:03:02;5.07;;;2.57;;
29688;SDS011;16600;47.444;8.334;2024-01-27T01:05:29;7.38;;;2.50;;
29688;SDS011;16600;47.444;8.334;2024-01-27T01:07:55;11.20;;;2.85;;
29688;SDS011;16600;47.444;8.334;2024-01-27T01:10:22;7.93;;;3.97;;
29688;SDS011;16600;47.444;8.334;2024-01-27T01:12:56;8.52;;;3.92;;
29688;SDS011;16600;47.444;8.334;2024-01-27T01:15:28;7.75;;;4.18;;
29688;SDS011;16600;47.444;8.334;2024-01-27T01:18:05;3.33;;;2.40;;
29688;SDS011;16600;47.444;8.334;2024-01-27T01:20:34;7.90;;;3.53;;
29688;SDS011;16600;47.444;8.334;2024-01-27T01:23:04;6.00;;;3.15;;
29688;SDS011;16600;47.444;8.334;2024-01-27T01:25:30;3.63;;;2.78;;
29688;SDS011;16600;47.444;8.334;2024-01-27T01:28:00;7.05;;;2.80;;
29688;SDS011;16600;47.444;8.334;2024-01-27T01:30:30;3.35;;;2.78;;
29688;SDS011;16600;47.444;8.334;2024-01-27T01:32:59;6.03;;;3.50;;
29688;SDS011;16600;47.444;8.334;2024-01-27T01:35:29;5.25;;;3.17;;
29688;SDS011;16600;47.444;8.334;2024-01-27T01:38:04;7.07;;;3.75;;
29688;SDS011;16600;47.444;8.334;2024-01-27T01:40:33;10.05;;;4.13;;
29688;SDS011;16600;47.444;8.334;2024-01-27T01:43:11;8.88;;;4.03;;
29688;SDS011;16600;47.444;8.334;2024-01-27T01:45:43;8.30;;;4.32;;
29688;SDS011;16600;47.444;8.334;2024-01-27T01:48:16;4.63;;;3.28;;
29688;SDS011;16600;47.444;8.334;2024-01-27T01:50:45;12.93;;;3.88;;
29688;SDS011;16600;47.444;8.334;2024-01-27T01:53:15;6.00;;;3.67;;
29688;SDS011;16600;47.444;8.334;2024-01-27T01:55:47;6.43;;;4.18;;
29688;SDS011;16600;47.444;8.334;2024-01-27T01:58:18;8.25;;;5.10;;
29688;SDS011;16600;47.444;8.334;2024-01-27T02:00:45;8.07;;;5.07;;
29688;SDS011;16600;47.444;8.334;2024-01-27T02:03:12;8.85;;;4.35;;
29688;SDS011;16600;47.444;8.334;2024-01-27T02:05:48;7.78;;;4.88;;
29688;SDS011;16600;47.444;8.334;2024-01-27T02:08:22;5.68;;;4.43;;
29688;SDS011;16600;47.444;8.334;2024-01-27T02:10:48;9.13;;;5.90;;
29688;SDS011;16600;47.444;8.334;2024-01-27T02:13:29;8.82;;;4.82;;
29688;SDS011;16600;47.444;8.334;2024-01-27T02:15:59;6.00;;;5.15;;
29688;SDS011;16600;47.444;8.334;2024-01-27T02:18:30;8.30;;;6.25;;
29688;SDS011;16600;47.444;8.334;2024-01-27T02:20:59;6.15;;;5.28;;
29688;SDS011;16600;47.444;8.334;2024-01-27T02:23:28;7.13;;;5.63;;
29688;SDS011;16600;47.444;8.334;2024-01-27T02:25:57;9.88;;;5.82;;
29688;SDS011;16600;47.444;8.334;2024-01-27T02:28:24;8.70;;;6.13;;
29688;SDS011;16600;47.444;8.334;2024-01-27T02:30:59;6.55;;;5.32;;
29688;SDS011;16600;47.444;8.334;2024-01-27T02:33:28;6.53;;;4.95;;
29688;SDS011;16600;47.444;8.334;2024-01-27T02:35:55;6.45;;;5.25;;
29688;SDS011;16600;47.444;8.334;2024-01-27T02:38:24;7.28;;;5.90;;
29688;SDS011;16600;47.444;8.334;2024-01-27T02:40:51;7.97;;;5.50;;
29688;SDS011;16600;47.444;8.334;2024-01-27T02:43:22;15.98;;;6.53;;
29688;SDS011;16600;47.444;8.334;2024-01-27T02:45:49;9.20;;;5.70;;
29688;SDS011;16600;47.444;8.334;2024-01-27T02:50:41;12.35;;;5.63;;
29688;SDS011;16600;47.444;8.334;2024-01-27T02:53:10;6.80;;;5.43;;
29688;SDS011;16600;47.444;8.334;2024-01-27T02:55:38;9.75;;;6.97;;
29688;SDS011;16600;47.444;8.334;2024-01-27T02:58:10;15.73;;;7.85;;
29688;SDS011;16600;47.444;8.334;2024-01-27T03:03:00;10.17;;;7.43;;
29688;SDS011;16600;47.444;8.334;2024-01-27T03:05:27;10.27;;;6.75;;
29688;SDS011;16600;47.444;8.334;2024-01-27T03:07:53;6.55;;;5.72;;
29688;SDS011;16600;47.444;8.334;2024-01-27T03:10:22;8.88;;;7.03;;
29688;SDS011;16600;47.444;8.334;2024-01-27T03:12:58;8.57;;;6.90;;
29688;SDS011;16600;47.444;8.334;2024-01-27T03:15:28;8.73;;;6.65;;
29688;SDS011;16600;47.444;8.334;2024-01-27T03:17:57;9.80;;;7.03;;
29688;SDS011;16600;47.444;8.334;2024-01-27T03:20:23;10.02;;;6.45;;
29688;SDS011;16600;47.444;8.334;2024-01-27T03:22:53;8.93;;;7.35;;
29688;SDS011;16600;47.444;8.334;2024-01-27T03:25:20;8.80;;;6.10;;
29688;SDS011;16600;47.444;8.334;2024-01-27T03:27:46;8.82;;;7.50;;
29688;SDS011;16600;47.444;8.334;2024-01-27T03:30:15;8.45;;;6.50;;
29688;SDS011;16600;47.444;8.334;2024-01-27T03:32:41;6.80;;;6.10;;
29688;SDS011;16600;47.444;8.334;2024-01-27T03:35:10;8.55;;;6.22;;
29688;SDS011;16600;47.444;8.334;2024-01-27T03:37:39;6.97;;;6.22;;
29688;SDS011;16600;47.444;8.334;2024-01-27T03:40:09;7.05;;;6.35;;
29688;SDS011;16600;47.444;8.334;2024-01-27T03:42:38;8.73;;;6.53;;
29688;SDS011;16600;47.444;8.334;2024-01-27T03:45:07;8.27;;;6.65;;
29688;SDS011;16600;47.444;8.334;2024-01-27T03:47:34;8.23;;;6.78;;
29688;SDS011;16600;47.444;8.334;2024-01-27T03:50:03;10.30;;;6.90;;
29688;SDS011;16600;47.444;8.334;2024-01-27T03:52:34;12.85;;;7.43;;
29688;SDS011;16600;47.444;8.334;2024-01-27T03:55:03;10.27;;;6.75;;
29688;SDS011;16600;47.444;8.334;2024-01-27T03:57:31;8.48;;;7.57;;
29688;SDS011;16600;47.444;8.334;2024-01-27T04:00:13;14.82;;;9.38;;
29688;SDS011;16600;47.444;8.334;2024-01-27T04:02:45;40.08;;;11.68;;
29688;SDS011;16600;47.444;8.334;2024-01-27T04:05:12;40.53;;;11.25;;
29688;SDS011;16600;47.444;8.334;2024-01-27T04:07:41;26.13;;;9.32;;
29688;SDS011;16600;47.444;8.334;2024-01-27T04:10:11;20.63;;;8.90;;
29688;SDS011;16600;47.444;8.334;2024-01-27T04:12:37;19.83;;;7.68;;
29688;SDS011;16600;47.444;8.334;2024-01-27T04:15:06;140.07;;;15.13;;
29688;SDS011;16600;47.444;8.334;2024-01-27T04:17:32;72.03;;;12.00;;
29688;SDS011;16600;47.444;8.334;2024-01-27T04:20:04;139.90;;;13.75;;
29688;SDS011;16600;47.444;8.334;2024-01-27T04:22:31;383.70;;;27.40;;
29688;SDS011;16600;47.444;8.334;2024-01-27T04:24:57;529.70;;;27.35;;
29688;SDS011;16600;47.444;8.334;2024-01-27T04:27:31;360.30;;;27.17;;
29688;SDS011;16600;47.444;8.334;2024-01-27T04:30:03;251.73;;;16.92;;
29688;SDS011;16600;47.444;8.334;2024-01-27T04:32:37;328.08;;;21.98;;
29688;SDS011;16600;47.444;8.334;2024-01-27T04:35:10;162.02;;;15.38;;
29688;SDS011;16600;47.444;8.334;2024-01-27T04:37:40;360.27;;;24.25;;
29688;SDS011;16600;47.444;8.334;2024-01-27T04:40:07;439.83;;;25.85;;
29688;SDS011;16600;47.444;8.334;2024-01-27T04:42:33;440.55;;;25.75;;
29688;SDS011;16600;47.444;8.334;2024-01-27T04:45:03;268.98;;;18.60;;
29688;SDS011;16600;47.444;8.334;2024-01-27T04:47:30;226.23;;;18.48;;
29688;SDS011;16600;47.444;8.334;2024-01-27T04:49:57;325.33;;;22.48;;
29688;SDS011;16600;47.444;8.334;2024-01-27T04:52:24;213.43;;;16.02;;
29688;SDS011;16600;47.444;8.334;2024-01-27T04:54:52;256.10;;;17.30;;
29688;SDS011;16600;47.444;8.334;2024-01-27T04:57:19;420.02;;;27.70;;
29688;SDS011;16600;47.444;8.334;2024-01-27T04:59:48;162.88;;;10.95;;
29688;SDS011;16600;47.444;8.334;2024-01-27T05:03:02;129.60;;;13.70;;
29688;SDS011;16600;47.444;8.334;2024-01-27T05:05:34;158.90;;;12.75;;
29688;SDS011;16600;47.444;8.334;2024-01-27T05:08:00;143.80;;;15.32;;
29688;SDS011;16600;47.444;8.334;2024-01-27T05:10:35;183.57;;;15.35;;
29688;SDS011;16600;47.444;8.334;2024-01-27T05:13:02;189.73;;;13.45;;
29688;SDS011;16600;47.444;8.334;2024-01-27T05:15:28;250.85;;;16.23;;
29688;SDS011;16600;47.444;8.334;2024-01-27T05:17:54;333.52;;;21.08;;
29688;SDS011;16600;47.444;8.334;2024-01-27T05:20:21;451.15;;;26.15;;
29688;SDS011;16600;47.444;8.334;2024-01-27T05:22:53;167.90;;;14.18;;
29688;SDS011;16600;47.444;8.334;2024-01-27T05:25:19;296.92;;;20.98;;
29688;SDS011;16600;47.444;8.334;2024-01-27T05:27:48;264.60;;;18.23;;
29688;SDS011;16600;47.444;8.334;2024-01-27T05:30:20;216.93;;;15.48;;
29688;SDS011;16600;47.444;8.334;2024-01-27T05:32:47;210.10;;;14.77;;
29688;SDS011;16600;47.444;8.334;2024-01-27T05:35:16;163.15;;;13.93;;
29688;SDS011;16600;47.444;8.334;2024-01-27T05:37:46;377.90;;;22.63;;
29688;SDS011;16600;47.444;8.334;2024-01-27T05:40:20;397.00;;;24.02;;
29688;SDS011;16600;47.444;8.334;2024-01-27T05:42:46;197.35;;;13.80;;
29688;SDS011;16600;47.444;8.334;2024-01-27T05:45:16;163.05;;;17.00;;
29688;SDS011;16600;47.444;8.334;2024-01-27T05:47:51;206.13;;;16.25;;
29688;SDS011;16600;47.444;8.334;2024-01-27T05:50:22;325.52;;;18.42;;
29688;SDS011;16600;47.444;8.334;2024-01-27T05:52:49;388.92;;;22.30;;
29688;SDS011;16600;47.444;8.334;2024-01-27T05:55:18;249.90;;;16.63;;
29688;SDS011;16600;47.444;8.334;2024-01-27T05:57:53;256.98;;;16.42;;
29688;SDS011;16600;47.444;8.334;2024-01-27T06:00:23;177.80;;;14.77;;
29688;SDS011;16600;47.444;8.334;2024-01-27T06:02:49;143.00;;;14.27;;
29688;SDS011;16600;47.444;8.334;2024-01-27T06:05:16;222.10;;;15.63;;
29688;SDS011;16600;47.444;8.334;2024-01-27T06:07:46;229.10;;;17.00;;
29688;SDS011;16600;47.444;8.334;2024-01-27T06:10:15;176.93;;;16.10;;
29688;SDS011;16600;47.444;8.334;2024-01-27T06:12:41;221.48;;;14.90;;
29688;SDS011;16600;47.444;8.334;2024-01-27T06:15:11;224.10;;;16.73;;
29688;SDS011;16600;47.444;8.334;2024-01-27T06:17:41;237.95;;;23.83;;
29688;SDS011;16600;47.444;8.334;2024-01-27T06:20:13;339.60;;;27.48;;
29688;SDS011;16600;47.444;8.334;2024-01-27T06:22:41;396.58;;;26.38;;
29688;SDS011;16600;47.444;8.334;2024-01-27T06:25:08;528.35;;;30.45;;
29688;SDS011;16600;47.444;8.334;2024-01-27T06:27:34;269.83;;;19.50;;
29688;SDS011;16600;47.444;8.334;2024-01-27T06:30:02;293.95;;;21.33;;
29688;SDS011;16600;47.444;8.334;2024-01-27T06:32:31;199.82;;;18.33;;
29688;SDS011;16600;47.444;8.334;2024-01-27T06:34:59;211.82;;;18.23;;
29688;SDS011;16600;47.444;8.334;2024-01-27T06:37:29;181.43;;;15.68;;
29688;SDS011;16600;47.444;8.334;2024-01-27T06:39:55;252.05;;;17.52;;
29688;SDS011;16600;47.444;8.334;2024-01-27T06:42:21;221.02;;;16.67;;
29688;SDS011;16600;47.444;8.334;2024-01-27T06:44:53;266.08;;;17.17;;
29688;SDS011;16600;47.444;8.334;2024-01-27T06:47:19;224.65;;;15.60;;
29688;SDS011;16600;47.444;8.334;2024-01-27T06:49:45;187.00;;;14.73;;
29688;SDS011;16600;47.444;8.334;2024-01-27T06:52:14;187.73;;;14.65;;
29688;SDS011;16600;47.444;8.334;2024-01-27T06:54:46;200.70;;;14.85;;
29688;SDS011;16600;47.444;8.334;2024-01-27T06:57:20;179.95;;;14.35;;
29688;SDS011;16600;47.444;8.334;2024-01-27T06:59:49;163.25;;;12.02;;
29688;SDS011;16600;47.444;8.334;2024-01-27T07:03:02;258.90;;;17.97;;
29688;SDS011;16600;47.444;8.334;2024-01-27T07:05:29;169.27;;;13.57;;
29688;SDS011;16600;47.444;8.334;2024-01-27T07:07:58;190.18;;;14.88;;
29688;SDS011;16600;47.444;8.334;2024-01-27T07:10:31;162.77;;;14.60;;
29688;SDS011;16600;47.444;8.334;2024-01-27T07:12:57;152.00;;;14.13;;
29688;SDS011;16600;47.444;8.334;2024-01-27T07:15:26;222.63;;;15.77;;
29688;SDS011;16600;47.444;8.334;2024-01-27T07:17:54;174.85;;;14.38;;
29688;SDS011;16600;47.444;8.334;2024-01-27T07:20:23;192.40;;;12.98;;
29688;SDS011;16600;47.444;8.334;2024-01-27T07:22:53;159.15;;;12.55;;
29688;SDS011;16600;47.444;8.334;2024-01-27T07:25:24;368.15;;;20.55;;
29688;SDS011;16600;47.444;8.334;2024-01-27T07:28:04;131.85;;;12.90;;
29688;SDS011;16600;47.444;8.334;2024-01-27T07:30:30;196.95;;;12.48;;
29688;SDS011;16600;47.444;8.334;2024-01-27T07:33:02;140.43;;;11.25;;
29688;SDS011;16600;47.444;8.334;2024-01-27T07:35:33;277.30;;;17.83;;
29688;SDS011;16600;47.444;8.334;2024-01-27T07:38:02;353.52;;;21.02;;
29688;SDS011;16600;47.444;8.334;2024-01-27T07:40:31;110.35;;;10.10;;
29688;SDS011;16600;47.444;8.334;2024-01-27T07:42:57;148.55;;;11.48;;
29688;SDS011;16600;47.444;8.334;2024-01-27T07:45:24;136.32;;;12.10;;
29688;SDS011;16600;47.444;8.334;2024-01-27T07:47:58;127.90;;;11.15;;
29688;SDS011;16600;47.444;8.334;2024-01-27T07:50:27;201.82;;;14.70;;
29688;SDS011;16600;47.444;8.334;2024-01-27T07:52:57;195.45;;;15.18;;
29688;SDS011;16600;47.444;8.334;2024-01-27T07:55:23;190.73;;;16.75;;
29688;SDS011;16600;47.444;8.334;2024-01-27T07:57:53;136.27;;;10.65;;
29688;SDS011;16600;47.444;8.334;2024-01-27T08:00:22;75.50;;;11.30;;
29688;SDS011;16600;47.444;8.334;2024-01-27T08:02:48;111.90;;;12.25;;
29688;SDS011;16600;47.444;8.334;2024-01-27T08:05:17;72.45;;;11.10;;
29688;SDS011;16600;47.444;8.334;2024-01-27T08:07:50;120.03;;;11.10;;
29688;SDS011;16600;47.444;8.334;2024-01-27T08:10:22;127.13;;;11.95;;
29688;SDS011;16600;47.444;8.334;2024-01-27T08:12:48;66.18;;;9.82;;
29688;SDS011;16600;47.444;8.334;2024-01-27T08:15:14;54.13;;;8.98;;
29688;SDS011;16600;47.444;8.334;2024-01-27T08:17:41;153.32;;;11.00;;
29688;SDS011;16600;47.444;8.334;2024-01-27T08:20:10;200.55;;;15.38;;
29688;SDS011;16600;47.444;8.334;2024-01-27T08:22:39;153.52;;;12.85;;
29688;SDS011;16600;47.444;8.334;2024-01-27T08:25:08;149.85;;;11.05;;
29688;SDS011;16600;47.444;8.334;2024-01-27T08:27:37;123.18;;;9.27;;
29688;SDS011;16600;47.444;8.334;2024-01-27T08:30:03;97.30;;;8.27;;
29688;SDS011;16600;47.444;8.334;2024-01-27T08:32:32;112.90;;;9.73;;
29688;SDS011;16600;47.444;8.334;2024-01-27T08:35:07;44.63;;;6.47;;
29688;SDS011;16600;47.444;8.334;2024-01-27T08:37:36;118.35;;;8.23;;
29688;SDS011;16600;47.444;8.334;2024-01-27T08:40:05;34.38;;;5.85;;
29688;SDS011;16600;47.444;8.334;2024-01-27T08:42:34;376.52;;;23.70;;
29688;SDS011;16600;47.444;8.334;2024-01-27T08:45:06;55.38;;;6.85;;
29688;SDS011;16600;47.444;8.334;2024-01-27T08:47:32;226.85;;;16.65;;
29688;SDS011;16600;47.444;8.334;2024-01-27T08:50:08;79.43;;;6.65;;
29688;SDS011;16600;47.444;8.334;2024-01-27T08:52:38;12.95;;;4.82;;
29688;SDS011;16600;47.444;8.334;2024-01-27T08:55:19;203.05;;;14.40;;
29688;SDS011;16600;47.444;8.334;2024-01-27T08:57:50;23.98;;;5.47;;
29688;SDS011;16600;47.444;8.334;2024-01-27T09:03:05;14.67;;;5.07;;
29688;SDS011;16600;47.444;8.334;2024-01-27T09:07:57;24.02;;;5.60;;
29688;SDS011;16600;47.444;8.334;2024-01-27T09:10:26;14.00;;;5.18;;
29688;SDS011;16600;47.444;8.334;2024-01-27T09:12:59;14.80;;;4.47;;
29688;SDS011;16600;47.444;8.334;2024-01-27T09:15:32;10.38;;;4.78;;
29688;SDS011;16600;47.444;8.334;2024-01-27T09:17:59;7.13;;;4.70;;
29688;SDS011;16600;47.444;8.334;2024-01-27T09:20:31;7.05;;;5.65;;
29688;SDS011;16600;47.444;8.334;2024-01-27T09:23:00;5.03;;;4.32;;
29688;SDS011;16600;47.444;8.334;2024-01-27T09:25:29;5.18;;;3.92;;
29688;SDS011;16600;47.444;8.334;2024-01-27T09:28:01;6.72;;;4.22;;
29688;SDS011;16600;47.444;8.334;2024-01-27T09:30:30;6.55;;;4.10;;
29688;SDS011;16600;47.444;8.334;2024-01-27T09:32:56;9.18;;;6.13;;
29688;SDS011;16600;47.444;8.334;2024-01-27T09:35:23;7.53;;;4.90;;
29688;SDS011;16600;47.444;8.334;2024-01-27T09:37:57;11.13;;;5.05;;
29688;SDS011;16600;47.444;8.334;2024-01-27T09:40:26;5.57;;;4.53;;
29688;SDS011;16600;47.444;8.334;2024-01-27T09:42:56;7.55;;;4.80;;
29688;SDS011;16600;47.444;8.334;2024-01-27T09:45:30;5.47;;;4.75;;
29688;SDS011;16600;47.444;8.334;2024-01-27T09:48:06;8.38;;;4.40;;
29688;SDS011;16600;47.444;8.334;2024-01-27T09:50:36;5.22;;;3.63;;
29688;SDS011;16600;47.444;8.334;2024-01-27T09:53:06;9.25;;;4.30;;
29688;SDS011;16600;47.444;8.334;2024-01-27T09:55:34;6.15;;;4.75;;
29688;SDS011;16600;47.444;8.334;2024-01-27T09:58:12;8.10;;;4.53;;
29688;SDS011;16600;47.444;8.334;2024-01-27T10:00:43;9.70;;;4.20;;
29688;SDS011;16600;47.444;8.334;2024-01-27T10:03:11;12.40;;;4.03;;
29688;SDS011;16600;47.444;8.334;2024-01-27T10:05:52;8.63;;;4.60;;
29688;SDS011;16600;47.444;8.334;2024-01-27T10:08:21;8.65;;;4.03;;
29688;SDS011;16600;47.444;8.334;2024-01-27T10:10:53;8.02;;;4.45;;
29688;SDS011;16600;47.444;8.334;2024-01-27T10:13:26;17.75;;;3.55;;
29688;SDS011;16600;47.444;8.334;2024-01-27T10:16:08;7.32;;;4.07;;
29688;SDS011;16600;47.444;8.334;2024-01-27T10:18:37;7.30;;;4.05;;
29688;SDS011;16600;47.444;8.334;2024-01-27T10:21:18;7.28;;;4.68;;
29688;SDS011;16600;47.444;8.334;2024-01-27T10:23:53;5.70;;;3.15;;
29688;SDS011;16600;47.444;8.334;2024-01-27T10:26:19;8.98;;;4.35;;
29688;SDS011;16600;47.444;8.334;2024-01-27T10:28:55;9.88;;;4.05;;
29688;SDS011;16600;47.444;8.334;2024-01-27T10:31:27;7.82;;;3.90;;
29688;SDS011;16600;47.444;8.334;2024-01-27T10:33:54;6.10;;;3.60;;
29688;SDS011;16600;47.444;8.334;2024-01-27T10:36:20;7.25;;;4.10;;
29688;SDS011;16600;47.444;8.334;2024-01-27T10:38:47;6.22;;;3.38;;
29688;SDS011;16600;47.444;8.334;2024-01-27T10:41:20;12.73;;;3.90;;
29688;SDS011;16600;47.444;8.334;2024-01-27T10:43:50;7.38;;;3.92;;
29688;SDS011;16600;47.444;8.334;2024-01-27T10:46:21;6.72;;;3.40;;
29688;SDS011;16600;47.444;8.334;2024-01-27T10:48:57;7.97;;;3.63;;
29688;SDS011;16600;47.444;8.334;2024-01-27T10:51:30;6.93;;;4.35;;
29688;SDS011;16600;47.444;8.334;2024-01-27T10:54:09;8.02;;;3.80;;
29688;SDS011;16600;47.444;8.334;2024-01-27T10:56:43;7.33;;;4.17;;
29688;SDS011;16600;47.444;8.334;2024-01-27T10:59:16;8.77;;;4.78;;
29688;SDS011;16600;47.444;8.334;2024-01-27T11:03:05;10.73;;;4.53;;
29688;SDS011;16600;47.444;8.334;2024-01-27T11:05:32;8.32;;;3.90;;
29688;SDS011;16600;47.444;8.334;2024-01-27T11:08:02;7.13;;;4.60;;
29688;SDS011;16600;47.444;8.334;2024-01-27T11:10:31;10.20;;;4.95;;
29688;SDS011;16600;47.444;8.334;2024-01-27T11:13:02;6.32;;;4.60;;
29688;SDS011;16600;47.444;8.334;2024-01-27T11:15:33;11.52;;;4.18;;
29688;SDS011;16600;47.444;8.334;2024-01-27T11:18:05;10.35;;;5.15;;
29688;SDS011;16600;47.444;8.334;2024-01-27T11:20:34;8.10;;;4.63;;
29688;SDS011;16600;47.444;8.334;2024-01-27T11:23:10;9.48;;;4.38;;
29688;SDS011;16600;47.444;8.334;2024-01-27T11:25:39;10.48;;;4.90;;
29688;SDS011;16600;47.444;8.334;2024-01-27T11:28:14;8.05;;;4.60;;
29688;SDS011;16600;47.444;8.334;2024-01-27T11:30:48;7.07;;;3.75;;
29688;SDS011;16600;47.444;8.334;2024-01-27T11:33:14;6.55;;;4.75;;
29688;SDS011;16600;47.444;8.334;2024-01-27T11:35:44;8.75;;;4.53;;
29688;SDS011;16600;47.444;8.334;2024-01-27T11:38:10;6.07;;;4.10;;
29688;SDS011;16600;47.444;8.334;2024-01-27T11:40:46;11.70;;;4.30;;
29688;SDS011;16600;47.444;8.334;2024-01-27T11:43:15;10.27;;;5.17;;
29688;SDS011;16600;47.444;8.334;2024-01-27T11:45:54;7.68;;;4.10;;
29688;SDS011;16600;47.444;8.334;2024-01-27T11:48:20;10.15;;;4.38;;
29688;SDS011;16600;47.444;8.334;2024-01-27T11:50:49;5.70;;;3.92;;
29688;SDS011;16600;47.444;8.334;2024-01-27T11:53:26;12.20;;;4.80;;
29688;SDS011;16600;47.444;8.334;2024-01-27T11:55:58;5.28;;;3.75;;
29688;SDS011;16600;47.444;8.334;2024-01-27T11:58:27;7.70;;;4.30;;
29688;SDS011;16600;47.444;8.334;2024-01-27T12:00:56;8.63;;;4.63;;
29688;SDS011;16600;47.444;8.334;2024-01-27T12:03:26;8.98;;;5.05;;
29688;SDS011;16600;47.444;8.334;2024-01-27T12:05:55;7.97;;;4.85;;
29688;SDS011;16600;47.444;8.334;2024-01-27T12:08:22;7.97;;;5.00;;
29688;SDS011;16600;47.444;8.334;2024-01-27T12:10:48;7.90;;;4.38;;
29688;SDS011;16600;47.444;8.334;2024-01-27T12:13:15;16.38;;;4.93;;
29688;SDS011;16600;47.444;8.334;2024-01-27T12:15:50;7.28;;;4.50;;
29688;SDS011;16600;47.444;8.334;2024-01-27T12:18:16;7.70;;;4.53;;
29688;SDS011;16600;47.444;8.334;2024-01-27T12:20:44;11.27;;;4.38;;
29688;SDS011;16600;47.444;8.334;2024-01-27T12:23:16;7.53;;;4.43;;
29688;SDS011;16600;47.444;8.334;2024-01-27T12:25:54;8.25;;;4.35;;
29688;SDS011;16600;47.444;8.334;2024-01-27T12:28:27;6.50;;;4.65;;
29688;SDS011;16600;47.444;8.334;2024-01-27T12:30:57;5.68;;;4.05;;
29688;SDS011;16600;47.444;8.334;2024-01-27T12:33:26;8.50;;;5.05;;
29688;SDS011;16600;47.444;8.334;2024-01-27T12:35:55;12.70;;;4.70;;
29688;SDS011;16600;47.444;8.334;2024-01-27T12:38:28;7.55;;;4.13;;
29688;SDS011;16600;47.444;8.334;2024-01-27T12:41:05;6.47;;;3.90;;
29688;SDS011;16600;47.444;8.334;2024-01-27T12:43:34;7.03;;;3.95;;
29688;SDS011;16600;47.444;8.334;2024-01-27T12:46:00;8.30;;;4.80;;
29688;SDS011;16600;47.444;8.334;2024-01-27T12:48:36;6.45;;;3.75;;
29688;SDS011;16600;47.444;8.334;2024-01-27T12:51:02;11.80;;;4.05;;
29688;SDS011;16600;47.444;8.334;2024-01-27T12:53:28;10.30;;;4.47;;
29688;SDS011;16600;47.444;8.334;2024-01-27T12:55:55;11.65;;;3.92;;
29688;SDS011;16600;47.444;8.334;2024-01-27T12:58:24;10.25;;;3.50;;
29688;SDS011;16600;47.444;8.334;2024-01-27T13:03:01;6.97;;;3.50;;
29688;SDS011;16600;47.444;8.334;2024-01-27T13:05:28;6.03;;;3.58;;
29688;SDS011;16600;47.444;8.334;2024-01-27T13:07:58;7.53;;;4.07;;
29688;SDS011;16600;47.444;8.334;2024-01-27T13:10:24;6.22;;;3.65;;
29688;SDS011;16600;47.444;8.334;2024-01-27T13:12:56;5.22;;;3.65;;
29688;SDS011;16600;47.444;8.334;2024-01-27T13:15:24;8.32;;;4.07;;
29688;SDS011;16600;47.444;8.334;2024-01-27T13:17:51;8.18;;;3.63;;
29688;SDS011;16600;47.444;8.334;2024-01-27T13:20:23;17.08;;;4.40;;
29688;SDS011;16600;47.444;8.334;2024-01-27T13:22:57;4.68;;;3.03;;
29688;SDS011;16600;47.444;8.334;2024-01-27T13:25:24;7.40;;;3.65;;
29688;SDS011;16600;47.444;8.334;2024-01-27T13:27:56;4.57;;;3.17;;
29688;SDS011;16600;47.444;8.334;2024-01-27T13:30:22;5.43;;;3.45;;
29688;SDS011;16600;47.444;8.334;2024-01-27T13:32:54;17.88;;;4.20;;
29688;SDS011;16600;47.444;8.334;2024-01-27T13:35:21;5.18;;;3.63;;
29688;SDS011;16600;47.444;8.334;2024-01-27T13:37:47;4.05;;;3.42;;
29688;SDS011;16600;47.444;8.334;2024-01-27T13:40:13;10.25;;;4.18;;
29688;SDS011;16600;47.444;8.334;2024-01-27T13:42:40;4.55;;;2.95;;
29688;SDS011;16600;47.444;8.334;2024-01-27T13:45:06;8.25;;;3.83;;
29688;SDS011;16600;47.444;8.334;2024-01-27T13:47:37;10.32;;;3.72;;
29688;SDS011;16600;47.444;8.334;2024-01-27T13:50:07;6.32;;;3.17;;
29688;SDS011;16600;47.444;8.334;2024-01-27T13:52:39;4.05;;;3.13;;
29688;SDS011;16600;47.444;8.334;2024-01-27T13:55:08;10.93;;;3.67;;
29688;SDS011;16600;47.444;8.334;2024-01-27T13:57:41;5.95;;;3.53;;
29688;SDS011;16600;47.444;8.334;2024-01-27T14:00:07;4.80;;;3.10;;
29688;SDS011;16600;47.444;8.334;2024-01-27T14:02:35;5.22;;;2.75;;
29688;SDS011;16600;47.444;8.334;2024-01-27T14:05:04;7.78;;;3.70;;
29688;SDS011;16600;47.444;8.334;2024-01-27T14:07:39;10.60;;;3.50;;
29688;SDS011;16600;47.444;8.334;2024-01-27T14:10:08;5.55;;;3.15;;
29688;SDS011;16600;47.444;8.334;2024-01-27T14:12:37;5.03;;;3.13;;
29688;SDS011;16600;47.444;8.334;2024-01-27T14:17:53;22.77;;;6.97;;
29688;SDS011;16600;47.444;8.334;2024-01-27T14:20:31;5.07;;;2.92;;
29688;SDS011;16600;47.444;8.334;2024-01-27T14:23:02;5.25;;;3.40;;
29688;SDS011;16600;47.444;8.334;2024-01-27T14:25:41;5.60;;;3.40;;
29688;SDS011;16600;47.444;8.334;2024-01-27T14:28:10;8.13;;;3.92;;
29688;SDS011;16600;47.444;8.334;2024-01-27T14:30:39;6.65;;;3.63;;
29688;SDS011;16600;47.444;8.334;2024-01-27T14:33:06;11.73;;;3.72;;
29688;SDS011;16600;47.444;8.334;2024-01-27T14:35:35;6.47;;;3.90;;
29688;SDS011;16600;47.444;8.334;2024-01-27T14:38:01;5.25;;;3.35;;
29688;SDS011;16600;47.444;8.334;2024-01-27T14:40:28;8.73;;;3.55;;
29688;SDS011;16600;47.444;8.334;2024-01-27T14:42:55;11.30;;;3.38;;
29688;SDS011;16600;47.444;8.334;2024-01-27T14:45:25;15.35;;;8.77;;
29688;SDS011;16600;47.444;8.334;2024-01-27T14:47:51;12.82;;;5.82;;
29688;SDS011;16600;47.444;8.334;2024-01-27T14:50:20;9.15;;;4.03;;
29688;SDS011;16600;47.444;8.334;2024-01-27T14:52:47;7.03;;;3.70;;
29688;SDS011;16600;47.444;8.334;2024-01-27T14:55:20;5.43;;;3.55;;
29688;SDS011;16600;47.444;8.334;2024-01-27T14:57:46;4.20;;;3.13;;
29688;SDS011;16600;47.444;8.334;2024-01-27T15:03:01;7.13;;;3.70;;
29688;SDS011;16600;47.444;8.334;2024-01-27T15:05:30;10.93;;;3.72;;
29688;SDS011;16600;47.444;8.334;2024-01-27T15:08:07;9.25;;;3.90;;
29688;SDS011;16600;47.444;8.334;2024-01-27T15:10:34;7.25;;;3.38;;
29688;SDS011;16600;47.444;8.334;2024-01-27T15:13:05;6.78;;;3.58;;